Terminal Aerodrome Forecast
Issued by NWS Albuquerque, NM

Home | Current Version | Previous Version | Text Only | Print | Product List | Glossary On
Versions: 1 2 3 4 5 6 7 8 9 10 11 12 13 14 15 16
000
FTUS45 KABQ 261121
TAFABQ
TAF
KABQ 261121Z 2612/2712 VRB04KT P6SM FEW100
     FM261900 26008KT P6SM SCT080
     FM270200 VRB05KT P6SM BKN070
     FM270600 09006KT P6SM FEW070 BKN250=

USA.gov is the U.S. government's official web portal to all federal, state and local government web resources and services.